Aviation Digital Data Service (ADDS)

Output produced by TAFs form (0046 UTC 26 July 2017)
found at http://aviationweather.gov/adds/tafs/
 
KMAF 260001Z 2600/2624 15014G23KT P6SM SCT070 SCT250 
     FM260200 16007KT P6SM SKC 
     FM261200 17010KT P6SM SCT008 
     FM261500 17014G24KT P6SM SCT035 SCT250